Terminal Aerodrome Forecast
Issued by NWS Charleston, WV

Current Version | Previous Version | Text Only | Print | Product List | Glossary Off
Versions: 1 2 3 4 5 6 7 8 9 10 11 12 13 14 15 16 17 18 19 20 21 22

000
FTUS41 KRLX 011700 RRA
TAFCRW
TAF
KCRW 011749Z 0118/0218 22005KT 3SM -RA BR OVC025
     FM020300 25004KT 5SM -RA BR OVC015
     FM020400 26004KT 5SM -RA BR OVC010
     FM021000 30004KT 6SM BR OVC015
     FM021400 30005KT P6SM BKN025=

USA.gov is the U.S. government's official web portal to all federal, state and local government web resources and services.